Grand Strand Airport North Myrtle Beach US
ICAO: KCRE
IATA: CRE
Category: Medium
Scheduled Services: No

Elevation: 32 ft
TransAlt. 18000 ft.

Airport Communications:
MYRTLE BEACH APP/DEP:119.2
ATIS:119.625
CTAF:124.6
STRAND GND:121.8
ANDERSON RDO:123.6
STRAND TWR:124.6
UNICOM:122.95

KCRE Zoom In..

If you have problems with the map follow the link
https://www.worldairports.se/pages/airport.php?
ICAO=KCRE

Runways:

(A) RW 05 length 5997 ft width 100 ft
---- / hdg 54

(B) RW 23 length 5997 ft width 100 ft
ILS 111.70 / hdg 234

Location; KCRE
Day. 21 / Time. 17.53 Zulu
* Altimeter: 30.15
* Temperature: 16° c. 60.8°f.
* Wind from: 360° Speed 11 kn with Gusts up to 18 kn.
Dewpoint: -01° c.
Visibility: 10 Statute Miles.
Clouds: Clear (automated report).

KCRE 211753Z 36011G18KT 10SM CLR 16/M01 A3015 RMK AO1 SLP210 T01611006 10161 20122 58009


Wind From 360°
Speed 11 kn.

 
 
jpsmedia.com for Web Design worldairports.se 2018   terms of use